createdAt,value
2023-02-03T00:02:58.552Z,-21.31
2023-02-03T00:06:03.029Z,-21.60
2023-02-03T00:09:06.876Z,-21.51
2023-02-03T00:12:10.915Z,-21.63
2023-02-03T00:15:15.012Z,-21.68
2023-02-03T00:18:18.149Z,-21.95
2023-02-03T00:21:21.507Z,-21.82
2023-02-03T00:24:25.022Z,-21.80
2023-02-03T00:27:28.960Z,-21.61
2023-02-03T00:30:34.846Z,-21.65
2023-02-03T00:33:39.986Z,-21.64
2023-02-03T00:36:43.923Z,-21.62
2023-02-03T00:39:47.899Z,-21.46
2023-02-03T00:42:51.523Z,-21.23
2023-02-03T00:45:55.479Z,-20.85
2023-02-03T00:48:59.544Z,-20.65
2023-02-03T00:52:02.835Z,-20.38
2023-02-03T00:55:07.022Z,-20.09
2023-02-03T00:58:10.582Z,-19.89
2023-02-03T01:01:14.141Z,-19.69
2023-02-03T01:04:19.327Z,-19.61
2023-02-03T01:07:22.388Z,-19.37
2023-02-03T01:10:25.890Z,-19.21
2023-02-03T01:13:29.615Z,-19.08
2023-02-03T01:16:37.152Z,-18.77
2023-02-03T01:19:40.056Z,-18.49
2023-02-03T01:22:44.256Z,-18.44
2023-02-03T01:25:47.823Z,-18.16
2023-02-03T01:28:53.953Z,-17.85
2023-02-03T01:31:57.788Z,-17.57
2023-02-03T01:35:01.767Z,-17.37
2023-02-03T01:38:12.599Z,-17.22
2023-02-03T01:41:22.280Z,-17.21
2023-02-03T01:44:43.102Z,-17.12
2023-02-03T01:47:55.290Z,-16.74
2023-02-03T01:50:58.592Z,-16.42
2023-02-03T01:54:03.485Z,-16.03
2023-02-03T01:57:14.355Z,-15.88
2023-02-03T02:00:18.916Z,-15.83
2023-02-03T02:03:27.971Z,-15.42
2023-02-03T02:06:31.978Z,-15.26
2023-02-03T02:09:35.464Z,-14.90
2023-02-03T02:12:38.958Z,-14.49
2023-02-03T02:16:32.026Z,-14.02
2023-02-03T02:20:05.198Z,-13.90
2023-02-03T02:23:23.651Z,-14.11
2023-02-03T02:26:50.405Z,-14.18
2023-02-03T02:30:31.270Z,-14.05
2023-02-03T02:34:05.930Z,-13.89
2023-02-03T02:37:41.968Z,-13.24
2023-02-03T02:41:12.892Z,-12.85
2023-02-03T02:44:42.000Z,-12.68
2023-02-03T02:47:47.045Z,-12.86
2023-02-03T02:50:54.317Z,-12.66
2023-02-03T02:54:01.770Z,-12.37
2023-02-03T02:57:07.116Z,-12.11
2023-02-03T03:00:13.971Z,-11.96
2023-02-03T03:03:22.591Z,-11.84
2023-02-03T03:06:34.907Z,-11.62
2023-02-03T03:09:48.482Z,-11.39
2023-02-03T03:13:02.633Z,-11.24
2023-02-03T03:16:08.486Z,-11.17
2023-02-03T03:19:17.096Z,-10.80
2023-02-03T03:22:23.640Z,-10.73
2023-02-03T03:25:34.373Z,-10.64
2023-02-03T03:29:08.351Z,-10.69
2023-02-03T03:32:12.368Z,-10.81
2023-02-03T03:35:16.908Z,-10.86
2023-02-03T03:38:24.366Z,-10.78
2023-02-03T03:41:42.161Z,-10.81
2023-02-03T03:44:53.639Z,-10.60
2023-02-03T03:48:06.874Z,-10.20
2023-02-03T03:51:14.876Z,-10.17
2023-02-03T03:54:23.281Z,-9.93
2023-02-03T03:57:42.267Z,-9.74
2023-02-03T04:00:47.748Z,-9.58
2023-02-03T04:03:56.975Z,-9.34
2023-02-03T04:07:01.026Z,-9.27
2023-02-03T04:10:08.020Z,-9.19
2023-02-03T04:13:13.164Z,-9.05
2023-02-03T04:16:16.778Z,-8.97
2023-02-03T04:19:20.763Z,-8.83
2023-02-03T04:22:24.329Z,-8.65
2023-02-03T04:25:28.352Z,-8.64
2023-02-03T04:28:31.914Z,-8.55
2023-02-03T04:31:34.860Z,-8.34
2023-02-03T04:34:40.844Z,-8.12
2023-02-03T04:37:44.821Z,-8.00
2023-02-03T04:40:48.664Z,-7.94
2023-02-03T04:43:52.462Z,-7.78
2023-02-03T04:46:55.358Z,-7.74
2023-02-03T04:49:59.044Z,-7.64
2023-02-03T04:53:02.380Z,-7.53
2023-02-03T04:56:05.659Z,-7.46
2023-02-03T04:59:09.470Z,-7.39
2023-02-03T05:02:13.073Z,-7.30
2023-02-03T05:05:16.905Z,-7.20
2023-02-03T05:08:20.904Z,-7.23
2023-02-03T05:11:24.589Z,-7.15
2023-02-03T05:14:27.882Z,-6.96
2023-02-03T05:17:30.818Z,-6.86
2023-02-03T05:20:34.144Z,-6.78
2023-02-03T05:23:37.220Z,-6.72
2023-02-03T05:26:40.511Z,-6.66
2023-02-03T05:29:45.771Z,-6.49
2023-02-03T05:32:50.621Z,-6.40
2023-02-03T05:35:54.527Z,-6.38
2023-02-03T05:38:57.392Z,-6.33
2023-02-03T05:42:00.679Z,-6.22
2023-02-03T05:45:03.815Z,-6.21
2023-02-03T05:48:08.334Z,-6.22
2023-02-03T05:51:11.245Z,-6.24
2023-02-03T05:54:14.688Z,-6.08
2023-02-03T05:57:19.845Z,-6.13
2023-02-03T06:00:24.886Z,-6.12
2023-02-03T06:03:28.235Z,-6.06
2023-02-03T06:06:35.756Z,-6.12
2023-02-03T06:09:39.368Z,-6.03
2023-02-03T06:12:42.500Z,-5.99
2023-02-03T06:15:46.171Z,-5.90
2023-02-03T06:18:53.249Z,-5.78
2023-02-03T06:21:56.116Z,-5.74
2023-02-03T06:25:00.044Z,-5.69
2023-02-03T06:28:03.402Z,-5.79
2023-02-03T06:31:06.970Z,-5.90
2023-02-03T06:34:10.153Z,-5.94
2023-02-03T06:37:13.839Z,-5.92
2023-02-03T06:40:17.426Z,-5.85
2023-02-03T06:43:21.128Z,-5.75
2023-02-03T06:46:24.189Z,-5.71
2023-02-03T06:49:27.877Z,-5.69
2023-02-03T06:52:31.458Z,-5.64
2023-02-03T06:55:34.397Z,-5.70
2023-02-03T06:58:37.936Z,-5.59
2023-02-03T07:01:41.590Z,-5.69
2023-02-03T07:04:45.752Z,-5.76
2023-02-03T07:07:49.410Z,-5.80
2023-02-03T07:10:56.598Z,-5.83
2023-02-03T07:14:00.481Z,-5.82
2023-02-03T07:17:04.317Z,-5.83
2023-02-03T07:20:07.673Z,-5.91
2023-02-03T07:23:10.894Z,-6.00
2023-02-03T07:26:14.105Z,-6.15
2023-02-03T07:29:17.699Z,-6.19
2023-02-03T07:32:20.836Z,-6.20
2023-02-03T07:35:23.970Z,-6.30
2023-02-03T07:38:29.127Z,-6.24
2023-02-03T07:41:32.741Z,-6.21
2023-02-03T07:44:35.761Z,-6.41
2023-02-03T07:47:39.165Z,-6.48
2023-02-03T07:50:42.277Z,-6.60
2023-02-03T07:53:45.774Z,-6.88
2023-02-03T07:56:49.306Z,-6.99
2023-02-03T07:59:54.606Z,-7.09
2023-02-03T08:02:58.240Z,-7.16
2023-02-03T08:06:01.089Z,-7.28
2023-02-03T08:09:04.906Z,-7.34
2023-02-03T08:12:07.944Z,-7.37
2023-02-03T08:15:13.669Z,-7.36
2023-02-03T08:18:17.660Z,-7.37
2023-02-03T08:21:21.599Z,-7.47
2023-02-03T08:24:24.722Z,-7.54
2023-02-03T08:27:28.469Z,-7.57
2023-02-03T08:30:31.615Z,-7.56
2023-02-03T08:33:35.267Z,-7.62
2023-02-03T08:36:40.672Z,-7.62
2023-02-03T08:39:43.932Z,-7.55
2023-02-03T08:42:46.906Z,-7.56
2023-02-03T08:45:50.653Z,-7.76
2023-02-03T08:48:56.959Z,-7.89
2023-02-03T08:52:00.681Z,-7.93
2023-02-03T08:55:03.630Z,-7.99
2023-02-03T08:58:07.511Z,-8.04
2023-02-03T09:01:16.036Z,-8.11
2023-02-03T09:04:25.171Z,-8.14
2023-02-03T09:07:29.111Z,-8.13
2023-02-03T09:10:33.008Z,-8.28
2023-02-03T09:13:36.720Z,-8.41
2023-02-03T09:16:41.141Z,-8.54
2023-02-03T09:19:47.343Z,-8.56
2023-02-03T09:22:52.020Z,-8.63
2023-02-03T09:26:03.389Z,-8.77
2023-02-03T09:29:08.158Z,-8.78
2023-02-03T09:32:12.243Z,-8.87
2023-02-03T09:35:17.050Z,-9.00
2023-02-03T09:38:21.350Z,-9.06
2023-02-03T09:41:44.850Z,-9.14
2023-02-03T09:45:15.121Z,-9.22
2023-02-03T09:48:24.354Z,-9.20
2023-02-03T09:51:43.015Z,-9.24
2023-02-03T09:55:06.756Z,-9.33
2023-02-03T09:58:10.466Z,-9.38
2023-02-03T10:01:16.532Z,-9.40
2023-02-03T10:04:29.647Z,-9.46
2023-02-03T10:07:51.580Z,-9.43
2023-02-03T10:11:28.209Z,-9.38
2023-02-03T10:15:09.008Z,-9.50
2023-02-03T10:18:22.337Z,-9.56
2023-02-03T10:21:32.625Z,-9.66
2023-02-03T10:24:43.927Z,-9.68
2023-02-03T10:27:49.765Z,-9.78
2023-02-03T10:31:02.002Z,-9.73
2023-02-03T10:34:13.455Z,-9.69
2023-02-03T10:37:30.753Z,-9.71
2023-02-03T10:40:33.836Z,-9.76
2023-02-03T10:43:49.608Z,-9.79
2023-02-03T10:46:53.130Z,-9.77
2023-02-03T10:49:59.552Z,-9.77
2023-02-03T10:53:22.864Z,-9.86
2023-02-03T10:56:38.895Z,-9.97
2023-02-03T10:59:45.840Z,-10.00
2023-02-03T11:03:23.565Z,-10.01
2023-02-03T11:06:27.291Z,-10.04
2023-02-03T11:09:40.381Z,-10.04
2023-02-03T11:12:44.025Z,-10.00
2023-02-03T11:16:03.912Z,-9.97
2023-02-03T11:19:17.510Z,-9.98
2023-02-03T11:22:32.033Z,-9.96
2023-02-03T11:25:35.737Z,-9.97
2023-02-03T11:28:44.218Z,-10.08
2023-02-03T11:31:52.004Z,-10.21
2023-02-03T11:35:15.468Z,-10.43
2023-02-03T11:38:33.664Z,-10.59
2023-02-03T11:41:40.997Z,-10.73
2023-02-03T11:44:46.090Z,-10.80
2023-02-03T11:47:57.424Z,-10.91
2023-02-03T11:51:28.310Z,-10.80
2023-02-03T11:54:37.173Z,-10.72
2023-02-03T11:58:38.977Z,-10.67
2023-02-03T12:02:03.779Z,-10.67
2023-02-03T12:05:26.536Z,-10.79
2023-02-03T12:08:39.140Z,-10.92
2023-02-03T12:11:50.708Z,-11.07
2023-02-03T12:15:01.258Z,-11.14
2023-02-03T12:18:16.191Z,-11.17
2023-02-03T12:21:45.081Z,-11.11
2023-02-03T12:24:53.732Z,-11.05
2023-02-03T12:28:03.511Z,-11.17
2023-02-03T12:31:17.139Z,-11.32
2023-02-03T12:34:31.818Z,-11.50
2023-02-03T12:38:08.234Z,-11.48
2023-02-03T12:41:40.450Z,-11.44
2023-02-03T12:44:49.584Z,-11.35
2023-02-03T12:47:59.397Z,-11.32
2023-02-03T12:51:07.231Z,-11.27
2023-02-03T12:54:34.111Z,-11.29
2023-02-03T12:57:48.061Z,-11.35
2023-02-03T13:01:14.170Z,-11.42
2023-02-03T13:04:42.401Z,-11.58
2023-02-03T13:08:18.661Z,-11.60
2023-02-03T13:11:31.001Z,-11.65
2023-02-03T13:14:57.799Z,-11.70
2023-02-03T13:18:11.510Z,-11.64
2023-02-03T13:21:15.094Z,-11.52
2023-02-03T13:24:19.391Z,-11.39
2023-02-03T13:27:40.392Z,-11.30
2023-02-03T13:31:11.902Z,-11.28
2023-02-03T13:34:44.973Z,-11.25
2023-02-03T13:38:12.439Z,-11.08
2023-02-03T13:41:31.920Z,-11.08
2023-02-03T13:44:39.895Z,-11.16
2023-02-03T13:47:55.274Z,-11.17
2023-02-03T13:51:09.266Z,-11.09
2023-02-03T13:54:28.403Z,-10.97
2023-02-03T13:57:39.311Z,-10.90
2023-02-03T14:00:45.016Z,-10.99
2023-02-03T14:03:48.629Z,-11.07
2023-02-03T14:06:54.871Z,-11.07
2023-02-03T14:10:24.809Z,-11.12
2023-02-03T14:13:27.973Z,-11.06
2023-02-03T14:16:36.349Z,-11.01
2023-02-03T14:19:49.077Z,-10.94
2023-02-03T14:22:59.350Z,-10.88
2023-02-03T14:26:03.287Z,-10.77
2023-02-03T14:29:07.259Z,-10.73
2023-02-03T14:32:13.342Z,-10.62
2023-02-03T14:35:44.383Z,-10.56
2023-02-03T14:38:47.596Z,-10.51
2023-02-03T14:42:02.505Z,-10.50
2023-02-03T14:45:39.932Z,-10.46
2023-02-03T14:49:11.802Z,-10.42
2023-02-03T14:52:53.539Z,-10.39
2023-02-03T14:56:06.565Z,-10.36
2023-02-03T14:59:11.695Z,-10.39
2023-02-03T15:02:19.991Z,-10.55
2023-02-03T15:05:24.851Z,-10.69
2023-02-03T15:08:37.224Z,-10.82
2023-02-03T15:11:47.305Z,-10.68
2023-02-03T15:14:51.298Z,-10.58
2023-02-03T15:18:00.150Z,-10.42
2023-02-03T15:21:04.235Z,-10.29
2023-02-03T15:24:23.366Z,-10.34
2023-02-03T15:27:31.466Z,-10.25
2023-02-03T15:30:34.494Z,-10.16
2023-02-03T15:33:39.388Z,-10.12
2023-02-03T15:36:50.419Z,-10.12
2023-02-03T15:40:15.664Z,-10.05
2023-02-03T15:43:46.795Z,-9.98
2023-02-03T15:46:53.252Z,-9.92
2023-02-03T15:50:24.955Z,-9.92
2023-02-03T15:53:46.859Z,-9.90
2023-02-03T15:56:58.010Z,-9.91
2023-02-03T16:00:10.468Z,-9.84
2023-02-03T16:03:26.011Z,-9.84
2023-02-03T16:06:40.927Z,-9.82
2023-02-03T16:09:44.413Z,-9.70
2023-02-03T16:12:48.133Z,-9.67
2023-02-03T16:16:02.637Z,-9.65
2023-02-03T16:19:16.252Z,-9.60
2023-02-03T16:22:40.016Z,-9.55
2023-02-03T16:25:43.258Z,-9.48
2023-02-03T16:29:15.573Z,-9.40
2023-02-03T16:32:38.501Z,-9.34
2023-02-03T16:36:00.785Z,-9.31
2023-02-03T16:39:47.775Z,-9.24
2023-02-03T16:43:11.113Z,-9.28
2023-02-03T16:46:33.385Z,-9.27
2023-02-03T16:49:56.128Z,-9.26
2023-02-03T16:52:59.739Z,-9.26
2023-02-03T16:56:05.665Z,-9.29
2023-02-03T16:59:08.700Z,-9.37
2023-02-03T17:02:13.048Z,-9.35
2023-02-03T17:05:17.369Z,-9.29
2023-02-03T17:08:23.745Z,-9.28
2023-02-03T17:11:29.410Z,-9.26
2023-02-03T17:14:34.999Z,-9.26
2023-02-03T17:17:38.561Z,-9.22
2023-02-03T17:20:43.313Z,-9.16
2023-02-03T17:23:46.945Z,-9.20
2023-02-03T17:26:51.438Z,-9.19
2023-02-03T17:29:54.309Z,-9.13
2023-02-03T17:32:59.349Z,-9.09
2023-02-03T17:36:04.406Z,-9.10
2023-02-03T17:55:53.548Z,-8.90
2023-02-03T17:59:02.065Z,-8.90
2023-02-03T18:02:05.064Z,-8.96
2023-02-03T18:05:09.221Z,-8.94
2023-02-03T18:08:16.346Z,-8.92
2023-02-03T18:11:26.312Z,-8.97
2023-02-03T18:14:29.442Z,-9.03
2023-02-03T18:17:33.671Z,-9.04
2023-02-03T18:20:37.300Z,-8.97
2023-02-03T18:23:42.016Z,-9.07
2023-02-03T18:26:49.352Z,-9.09
2023-02-03T18:29:52.658Z,-9.10
2023-02-03T18:32:56.296Z,-9.08
2023-02-03T18:36:02.368Z,-9.02
2023-02-03T18:39:05.773Z,-9.05
2023-02-03T18:42:12.391Z,-9.05
2023-02-03T18:45:16.022Z,-9.03
2023-02-03T18:48:22.305Z,-9.01
2023-02-03T18:51:26.629Z,-9.03
2023-02-03T18:54:30.583Z,-9.02
2023-02-03T18:57:34.337Z,-8.99
2023-02-03T19:00:39.378Z,-9.03
2023-02-03T19:03:43.532Z,-9.01
2023-02-03T19:06:48.535Z,-9.01
2023-02-03T19:09:51.388Z,-8.98
2023-02-03T19:12:55.253Z,-9.02
2023-02-03T19:15:59.367Z,-9.01
2023-02-03T19:19:03.485Z,-8.94
2023-02-03T19:22:06.995Z,-9.00
2023-02-03T19:25:13.164Z,-9.06
2023-02-03T19:28:29.980Z,-9.14
2023-02-03T19:31:36.314Z,-9.13
2023-02-03T19:34:40.000Z,-9.14
2023-02-03T19:37:43.920Z,-9.19
2023-02-03T19:40:47.508Z,-9.28
2023-02-03T19:43:53.024Z,-9.37
2023-02-03T19:46:56.597Z,-9.39
2023-02-03T19:50:02.534Z,-9.38
2023-02-03T19:53:08.922Z,-9.43
2023-02-03T19:56:15.672Z,-9.48
2023-02-03T19:59:19.219Z,-9.53
2023-02-03T20:02:22.983Z,-9.57
2023-02-03T20:05:26.691Z,-9.56
2023-02-03T20:08:30.555Z,-9.60
2023-02-03T20:11:33.491Z,-9.61
2023-02-03T20:14:37.736Z,-9.62
2023-02-03T20:17:40.745Z,-9.69
2023-02-03T20:20:52.954Z,-9.89
2023-02-03T20:23:56.524Z,-10.40
2023-02-03T20:27:00.364Z,-10.53
2023-02-03T20:30:04.545Z,-10.63
2023-02-03T20:33:08.291Z,-10.73
2023-02-03T20:36:12.823Z,-10.77
2023-02-03T20:39:22.141Z,-10.70
2023-02-03T20:42:25.415Z,-10.63
2023-02-03T20:45:28.623Z,-10.75
2023-02-03T20:48:31.799Z,-10.62
2023-02-03T20:51:35.471Z,-10.58
2023-02-03T20:54:38.524Z,-10.53
2023-02-03T20:57:42.225Z,-10.41
2023-02-03T21:00:45.898Z,-10.34
2023-02-03T21:04:08.284Z,-10.35
2023-02-03T21:07:18.588Z,-10.46
2023-02-03T21:10:25.856Z,-10.66
2023-02-03T21:13:36.280Z,-10.71
2023-02-03T21:16:40.851Z,-11.07
2023-02-03T21:19:44.551Z,-11.33
2023-02-03T21:22:48.079Z,-11.40
2023-02-03T21:25:51.655Z,-11.30
2023-02-03T21:29:01.011Z,-11.24
2023-02-03T21:32:12.154Z,-11.35
2023-02-03T21:35:35.577Z,-11.54
2023-02-03T21:38:39.221Z,-11.63
2023-02-03T21:41:42.140Z,-11.47
2023-02-03T21:44:45.769Z,-11.44
2023-02-03T21:47:51.126Z,-11.46
2023-02-03T21:50:56.822Z,-11.60
2023-02-03T21:54:02.556Z,-11.59
2023-02-03T21:57:05.970Z,-11.63
2023-02-03T22:00:51.327Z,-11.84
2023-02-03T22:04:06.883Z,-12.21
2023-02-03T22:07:16.276Z,-12.32
2023-02-03T22:10:19.940Z,-12.17
2023-02-03T22:13:24.055Z,-12.22
2023-02-03T22:16:27.081Z,-12.27
2023-02-03T22:19:31.174Z,-12.30
2023-02-03T22:22:34.552Z,-12.30
2023-02-03T22:25:38.968Z,-12.20
2023-02-03T22:28:45.743Z,-12.08
2023-02-03T22:31:49.012Z,-12.11
2023-02-03T22:34:52.740Z,-12.18
2023-02-03T22:37:55.989Z,-12.25
2023-02-03T22:40:59.206Z,-12.30
2023-02-03T22:44:04.158Z,-12.51
2023-02-03T22:47:07.055Z,-12.63
2023-02-03T22:50:13.336Z,-12.65
2023-02-03T22:53:17.066Z,-12.77
2023-02-03T22:56:21.888Z,-12.97
2023-02-03T22:59:26.638Z,-13.02
2023-02-03T23:02:32.163Z,-12.92
2023-02-03T23:05:35.317Z,-12.85
2023-02-03T23:08:39.468Z,-12.70
2023-02-03T23:11:45.568Z,-12.54
2023-02-03T23:14:52.112Z,-12.74
2023-02-03T23:17:55.300Z,-12.66
2023-02-03T23:20:59.306Z,-12.46
2023-02-03T23:24:02.164Z,-12.30
2023-02-03T23:27:06.230Z,-12.23
2023-02-03T23:30:12.856Z,-12.08
2023-02-03T23:33:16.539Z,-11.99
2023-02-03T23:36:20.168Z,-11.96
2023-02-03T23:39:23.726Z,-11.89
2023-02-03T23:42:27.072Z,-11.79
2023-02-03T23:45:30.195Z,-11.73
2023-02-03T23:48:33.088Z,-11.74
2023-02-03T23:51:35.945Z,-11.69
2023-02-03T23:54:38.806Z,-11.83
2023-02-03T23:57:43.172Z,-11.80
